Time;durP1;ratioP1;P1;durP2;ratioP2;P2;SDS_P1;SDS_P2;PMS_P1;PMS_P2;Temp;Humidity;BMP_temperature;BMP_pressure;BME280_temperature;BME280_humidity;BME280_pressure;Samples;Min_cycle;Max_cycle;Signal;HPM_P1;HPM_P2
2024/01/27 00:00:20;;;;;;;;;26.00;22.25;;;;;16.33;37.47;103199.13;5015328;28;46115;-69
2024/01/27 00:02:46;;;;;;;;;26.50;23.50;;;;;16.46;37.73;103224.84;5014940;28;45417;-69
2024/01/27 00:05:12;;;;;;;;;20.50;19.00;;;;;16.40;37.67;103216.94;5015390;28;45981;-69
2024/01/27 00:07:37;;;;;;;;;19.00;19.00;;;;;16.49;37.68;103222.97;5014725;28;45544;-71
2024/01/27 00:10:03;;;;;;;;;24.25;20.00;;;;;16.58;37.46;103228.09;5014858;28;46164;-68
2024/01/27 00:12:28;;;;;;;;;25.50;21.75;;;;;16.61;37.04;103219.88;5014953;28;45441;-68
2024/01/27 00:14:53;;;;;;;;;17.00;17.00;;;;;16.44;37.46;103211.34;5014698;28;45831;-69
2024/01/27 00:17:23;;;;;;;;;19.75;18.25;;;;;16.41;37.16;103219.59;5014028;28;55212;-67
2024/01/27 00:19:49;;;;;;;;;19.50;18.25;;;;;16.41;37.44;103224.13;5014961;28;47034;-69
2024/01/27 00:22:14;;;;;;;;;26.75;22.50;;;;;16.33;37.43;103218.94;5014590;28;45296;-68
2024/01/27 00:24:40;;;;;;;;;19.50;18.50;;;;;16.24;37.50;103228.25;5015181;28;45363;-68
2024/01/27 00:27:05;;;;;;;;;21.75;19.75;;;;;16.33;37.46;103218.06;5024114;28;57474;-67
2024/01/27 00:29:30;;;;;;;;;24.00;22.00;;;;;16.41;37.31;103243.09;5014675;28;46083;-68
2024/01/27 05:30:24;;;;;;;;;32.25;30.25;;;;;15.27;39.07;103185.00;5019232;28;46377;-67
2024/01/27 05:32:49;;;;;;;;;28.75;26.25;;;;;15.32;38.98;103179.44;5014025;28;45246;-68
2024/01/27 05:35:15;;;;;;;;;27.50;26.25;;;;;15.32;39.22;103168.63;5017594;28;45397;-68
2024/01/27 05:37:40;;;;;;;;;39.25;32.50;;;;;15.38;38.90;103179.31;5004909;28;46069;-68
2024/01/27 05:40:07;;;;;;;;;27.75;25.50;;;;;15.38;39.16;103182.00;5020298;28;45439;-68
2024/01/27 05:42:32;;;;;;;;;29.25;27.00;;;;;15.36;39.07;103170.34;5022516;28;45459;-67
2024/01/27 05:44:58;;;;;;;;;32.00;28.00;;;;;15.29;39.22;103161.53;5017308;28;45416;-69
2024/01/27 05:47:23;;;;;;;;;32.25;24.75;;;;;15.29;39.13;103158.81;4999439;28;45249;-68
2024/01/27 05:49:48;;;;;;;;;29.75;26.50;;;;;15.32;38.95;103166.81;5017798;28;45504;-69
2024/01/27 05:52:14;;;;;;;;;31.75;27.50;;;;;15.38;39.04;103172.09;5016757;28;48541;-68
2024/01/27 05:54:43;;;;;;;;;34.00;27.25;;;;;15.40;38.97;103172.91;5017342;28;46097;-68
2024/01/27 05:57:09;;;;;;;;;24.00;21.75;;;;;15.36;38.92;103163.13;5017192;28;45324;-68
2024/01/27 05:59:34;;;;;;;;;25.75;23.25;;;;;15.45;39.13;103170.09;5017567;28;45309;-68
2024/01/27 06:02:00;;;;;;;;;22.75;22.75;;;;;15.45;39.02;103164.69;5016870;28;45332;-70
2024/01/27 06:04:25;;;;;;;;;26.50;20.50;;;;;15.41;38.91;103163.88;5017311;28;45938;-68
2024/01/27 06:06:50;;;;;;;;;24.25;21.25;;;;;15.47;39.08;103174.53;5016933;28;45377;-69
2024/01/27 06:09:16;;;;;;;;;25.25;22.75;;;;;15.31;39.41;103156.09;5016996;28;48702;-68
2024/01/27 06:11:41;;;;;;;;;16.75;16.25;;;;;15.21;38.96;103155.44;5017136;28;45534;-69
2024/01/27 06:14:06;;;;;;;;;26.75;21.50;;;;;15.28;39.00;103161.56;5016995;28;45393;-68
2024/01/27 06:16:32;;;;;;;;;26.75;19.50;;;;;15.29;39.30;103166.94;5016193;28;45230;-67
2024/01/27 06:18:58;;;;;;;;;22.75;21.00;;;;;15.20;39.57;103168.97;4998915;28;45430;-67
2024/01/27 06:21:23;;;;;;;;;23.50;21.75;;;;;15.19;39.55;103178.00;5016409;28;45452;-68
2024/01/27 06:23:48;;;;;;;;;24.25;23.00;;;;;15.26;39.53;103176.91;5016797;28;45345;-72
2024/01/27 06:26:14;;;;;;;;;26.25;26.25;;;;;15.25;39.75;103173.31;5026629;28;49315;-70
2024/01/27 06:28:40;;;;;;;;;33.00;27.50;;;;;15.21;39.78;103165.34;5016857;28;45465;-71
2024/01/27 06:31:05;;;;;;;;;27.75;26.00;;;;;15.21;39.89;103174.34;5018271;28;45386;-72
2024/01/27 06:33:31;;;;;;;;;30.50;23.50;;;;;15.21;39.87;103166.25;5016298;28;45848;-69
2024/01/27 06:35:57;;;;;;;;;24.25;24.25;;;;;15.21;39.73;103170.75;5016381;28;45305;-69
2024/01/27 06:38:23;;;;;;;;;31.75;28.00;;;;;15.22;39.69;103162.63;4991797;28;45499;-70
2024/01/27 06:40:48;;;;;;;;;25.25;23.25;;;;;15.26;39.94;103167.00;5007127;28;45589;-72
2024/01/27 06:43:14;;;;;;;;;24.00;22.00;;;;;15.05;39.62;103127.06;5003273;28;46335;-77
2024/01/27 06:45:39;;;;;;;;;24.75;21.25;;;;;15.29;39.53;103175.03;5015550;28;45295;-76
2024/01/27 06:48:06;;;;;;;;;22.50;22.50;;;;;15.21;39.54;103158.13;5016395;28;45708;-72
2024/01/27 06:50:32;;;;;;;;;28.00;22.50;;;;;15.25;39.57;103165.22;5016150;28;45416;-71
2024/01/27 06:52:57;;;;;;;;;24.75;21.00;;;;;15.34;39.60;103177.59;5016051;28;46082;-70
2024/01/27 06:55:22;;;;;;;;;22.25;21.75;;;;;15.32;39.92;103172.22;4998371;28;45301;-69
2024/01/27 06:57:48;;;;;;;;;19.75;17.00;;;;;15.30;39.60;103165.13;5015688;28;56008;-69
2024/01/27 07:00:18;;;;;;;;;25.50;25.50;;;;;15.38;39.55;103176.59;5016214;28;45241;-72
2024/01/27 07:02:43;;;;;;;;;18.25;18.25;;;;;15.27;39.09;103148.97;5016228;28;46691;-75
2024/01/27 07:05:09;;;;;;;;;18.00;17.25;;;;;15.34;40.06;103154.16;5016431;28;45748;-76
2024/01/27 07:07:35;;;;;;;;;25.50;18.00;;;;;15.44;39.46;103165.63;5016190;28;45436;-73
2024/01/27 07:10:00;;;;;;;;;20.50;19.25;;;;;15.47;39.23;103158.31;5015597;28;45443;-69
2024/01/27 07:12:26;;;;;;;;;22.00;20.25;;;;;15.45;38.93;103151.16;5011353;28;45483;-70
2024/01/27 07:14:52;;;;;;;;;18.50;17.00;;;;;15.47;38.97;103149.31;5013925;28;46683;-70
2024/01/27 07:17:18;;;;;;;;;19.75;17.75;;;;;15.53;39.44;103159.94;5009739;28;45351;-69
2024/01/27 07:19:43;;;;;;;;;18.75;17.00;;;;;15.50;39.48;103149.22;5014802;28;45558;-70
2024/01/27 07:22:09;;;;;;;;;17.75;17.75;;;;;15.37;39.19;103154.09;5015628;28;45907;-70
2024/01/27 07:24:34;;;;;;;;;18.25;16.75;;;;;15.41;38.82;103155.75;5015850;28;45425;-75
2024/01/27 07:27:00;;;;;;;;;15.50;15.50;;;;;15.54;38.66;103164.47;5025078;28;45425;-70
2024/01/27 07:29:26;;;;;;;;;13.25;13.25;;;;;15.49;38.76;103163.66;5015281;28;45595;-72
2024/01/27 07:31:52;;;;;;;;;17.75;16.25;;;;;15.52;39.09;103177.09;5015024;28;46107;-70
2024/01/27 07:34:17;;;;;;;;;15.50;15.50;;;;;15.31;38.75;103150.69;4997476;28;45653;-71
2024/01/27 07:36:43;;;;;;;;;23.75;18.00;;;;;15.43;38.83;103178.25;5015737;28;45365;-70
2024/01/27 07:39:09;;;;;;;;;17.25;13.00;;;;;15.47;38.85;103179.06;5009070;28;45362;-71
2024/01/27 07:41:34;;;;;;;;;18.50;17.00;;;;;15.47;39.10;103189.88;5006354;28;46184;-71
2024/01/27 07:44:10;;;;;;;;;22.50;14.25;;;;;15.50;38.95;103185.25;5015648;28;45457;-70
2024/01/27 07:46:40;;;;;;;;;17.50;13.50;;;;;15.52;38.91;103187.91;5015714;28;45573;-70
2024/01/27 07:49:09;;;;;;;;;16.00;13.75;;;;;15.53;38.65;103195.09;5015311;28;45362;-70
2024/01/27 07:51:34;;;;;;;;;13.75;13.75;;;;;15.43;38.70;103182.75;4997457;28;45965;-71
2024/01/27 07:54:00;;;;;;;;;13.00;12.25;;;;;15.55;38.55;103197.81;5014954;28;45522;-70
2024/01/27 07:56:26;;;;;;;;;16.00;16.00;;;;;15.48;38.63;103180.84;4997886;28;45399;-70
2024/01/27 07:58:52;;;;;;;;;16.50;15.25;;;;;15.50;38.84;103181.66;5015184;28;45475;-70
2024/01/27 08:01:18;;;;;;;;;22.75;17.75;;;;;15.58;38.40;103181.47;5015042;28;46373;-70
2024/01/27 08:03:44;;;;;;;;;14.50;14.50;;;;;15.50;39.04;103181.66;5014877;28;45629;-71
2024/01/27 08:06:17;;;;;;;;;24.25;19.50;;;;;15.44;38.50;103179.13;5015267;28;45555;-70
2024/01/27 08:08:45;;;;;;;;;21.00;18.50;;;;;15.42;38.63;103180.97;5014872;28;45527;-70
2024/01/27 08:11:10;;;;;;;;;23.50;23.50;;;;;15.36;38.42;103182.03;5015115;28;46166;-71
2024/01/27 08:13:36;;;;;;;;;22.75;20.00;;;;;15.38;38.39;103187.41;5014649;28;52719;-69
2024/01/27 08:16:01;;;;;;;;;19.50;19.25;;;;;15.40;38.86;103197.22;5015093;28;45383;-70
2024/01/27 08:18:26;;;;;;;;;29.75;24.75;;;;;15.36;39.03;103197.38;5014583;28;45422;-69
2024/01/27 08:20:52;;;;;;;;;23.25;23.25;;;;;15.32;38.88;103207.38;5014162;28;58308;-71
2024/01/27 08:23:17;;;;;;;;;30.00;24.25;;;;;15.23;39.15;103191.38;5014162;28;57979;-71
2024/01/27 08:25:44;;;;;;;;;26.00;24.75;;;;;15.23;38.96;103207.59;5020973;28;45538;-71
2024/01/27 08:28:09;;;;;;;;;20.50;20.50;;;;;15.14;38.81;103192.53;5018206;28;45575;-71
2024/01/27 08:30:35;;;;;;;;;23.75;22.00;;;;;15.23;38.87;103195.91;5014454;28;46136;-70
2024/01/27 08:33:00;;;;;;;;;27.50;22.75;;;;;15.14;39.22;103181.72;5014530;28;45359;-70
2024/01/27 08:35:25;;;;;;;;;21.50;21.50;;;;;15.18;38.84;103179.84;5014439;28;46306;-70
2024/01/27 08:37:52;;;;;;;;;22.00;21.50;;;;;15.18;39.20;103187.94;5007289;28;46706;-70
2024/01/27 08:40:17;;;;;;;;;24.50;24.25;;;;;15.19;38.78;103188.81;5009414;28;47276;-69
2024/01/27 08:42:43;;;;;;;;;27.25;21.00;;;;;15.18;38.87;103181.63;5009945;28;45270;-70
2024/01/27 08:45:08;;;;;;;;;22.50;20.25;;;;;15.19;38.86;103186.13;5014731;28;45824;-70
2024/01/27 08:47:34;;;;;;;;;23.50;20.75;;;;;15.19;38.55;103178.00;5014578;28;45236;-70
2024/01/27 08:50:00;;;;;;;;;22.25;21.25;;;;;15.19;38.58;103183.41;5014497;28;45385;-70
2024/01/27 08:52:25;;;;;;;;;24.00;21.00;;;;;15.17;38.73;103186.16;5014152;28;45157;-71
2024/01/27 08:54:50;;;;;;;;;18.25;18.00;;;;;15.14;38.51;103195.22;5014454;28;45459;-70
2024/01/27 08:57:16;;;;;;;;;19.50;18.75;;;;;15.07;38.94;103173.81;5014348;28;45463;-72
2024/01/27 08:59:41;;;;;;;;;13.00;12.00;;;;;15.15;38.67;103188.00;5014273;28;46124;-71
2024/01/27 09:02:07;;;;;;;;;17.50;16.50;;;;;15.11;38.38;103186.31;4995981;28;45463;-70
2024/01/27 09:04:32;;;;;;;;;16.50;14.75;;;;;15.09;38.62;103178.25;5013356;28;45475;-71
2024/01/27 09:06:57;;;;;;;;;14.00;13.50;;;;;15.08;38.52;103165.66;5014120;28;45301;-70
2024/01/27 09:09:23;;;;;;;;;19.25;16.00;;;;;15.09;38.85;103169.25;5014632;28;45292;-70
2024/01/27 09:11:50;;;;;;;;;9.50;9.50;;;;;15.14;38.73;103162.78;4996477;28;45653;-71
2024/01/27 09:14:15;;;;;;;;;12.50;12.50;;;;;15.10;38.64;103147.63;5014593;28;45408;-71
2024/01/27 09:16:41;;;;;;;;;15.75;15.75;;;;;15.15;38.89;103156.47;5014159;28;45541;-69
2024/01/27 09:19:07;;;;;;;;;18.00;15.50;;;;;15.29;38.81;103158.81;5014193;28;46121;-70
2024/01/27 09:21:33;;;;;;;;;13.75;13.00;;;;;15.39;38.61;103168.47;5013940;28;45555;-71
2024/01/27 09:24:01;;;;;;;;;16.25;14.75;;;;;15.48;38.40;103170.03;4996586;28;45397;-74
2024/01/27 09:26:26;;;;;;;;;20.00;17.25;;;;;15.54;38.29;103169.88;5023675;28;45496;-70
2024/01/27 09:28:54;;;;;;;;;19.50;18.50;;;;;15.58;38.22;103163.44;5013264;28;61497;-73
2024/01/27 09:31:23;;;;;;;;;20.25;18.50;;;;;15.65;38.17;103165.03;5013869;28;45443;-74
2024/01/27 09:33:51;;;;;;;;;17.75;17.00;;;;;15.44;38.08;103162.91;5014272;28;45314;-73
2024/01/27 09:36:17;;;;;;;;;19.50;19.50;;;;;15.57;37.80;103158.09;5013714;28;45576;-72
2024/01/27 09:38:42;;;;;;;;;18.50;17.50;;;;;15.56;37.94;103151.81;5006871;28;45441;-73
2024/01/27 09:41:09;;;;;;;;;22.00;18.50;;;;;15.57;37.58;103144.56;5004682;28;45304;-73
2024/01/27 09:43:36;;;;;;;;;21.50;21.50;;;;;15.67;37.85;103155.06;5014261;28;45285;-73
2024/01/27 09:46:02;;;;;;;;;22.00;19.50;;;;;15.56;37.79;103154.50;4995923;28;45395;-75
2024/01/27 09:48:29;;;;;;;;;23.75;21.75;;;;;15.57;37.67;103136.47;5010772;28;45493;-74
2024/01/27 09:50:58;;;;;;;;;25.25;21.25;;;;;15.76;37.32;103164.72;5012760;28;45341;-71
2024/01/27 09:53:23;;;;;;;;;13.75;13.75;;;;;15.88;37.22;103177.91;4996398;28;45357;-72
2024/01/27 09:55:50;;;;;;;;;20.25;18.75;;;;;15.85;37.15;103170.75;5013301;28;45593;-71
2024/01/27 09:58:15;;;;;;;;;17.50;17.50;;;;;15.87;36.79;103168.91;5014273;28;45549;-72
2024/01/27 10:00:41;;;;;;;;;12.25;11.25;;;;;15.98;36.62;103160.47;5013648;28;45372;-71
2024/01/27 10:03:08;;;;;;;;;2.50;2.50;;;;;16.03;36.37;103169.31;5015401;28;45377;-71
2024/01/27 10:05:34;;;;;;;;;22.00;18.25;;;;;16.13;36.50;103181.66;5013883;28;45230;-71
2024/01/27 10:08:00;;;;;;;;;19.25;18.00;;;;;16.22;36.40;103185.91;5014131;28;46213;-71
2024/01/27 10:10:25;;;;;;;;;19.75;18.50;;;;;16.22;36.13;103177.78;5013456;28;45254;-71
2024/01/27 10:12:58;;;;;;;;;18.25;13.25;;;;;16.24;36.12;103187.63;5014584;28;45388;-71
2024/01/27 10:15:23;;;;;;;;;13.25;12.00;;;;;16.26;35.86;103176.72;5015396;28;45521;-72
2024/01/27 10:17:49;;;;;;;;;13.75;13.75;;;;;16.39;35.30;103175.44;5009031;28;45479;-72
2024/01/27 10:20:18;;;;;;;;;11.00;9.25;;;;;16.44;35.25;103177.97;5014691;28;45405;-73
2024/01/27 10:22:45;;;;;;;;;13.00;8.00;;;;;16.44;34.79;103169.84;5017134;28;45324;-71
2024/01/27 10:25:11;;;;;;;;;11.50;10.75;;;;;16.53;34.85;103178.56;5000077;28;45593;-73
2024/01/27 10:27:37;;;;;;;;;14.75;11.25;;;;;16.46;34.93;103162.59;5023757;28;46256;-72
2024/01/27 10:30:03;;;;;;;;;14.75;11.50;;;;;16.61;34.98;103179.25;5014860;28;45574;-73
2024/01/27 10:32:30;;;;;;;;;13.50;13.00;;;;;16.64;34.59;103170.16;5016531;28;45261;-74
2024/01/27 10:35:05;;;;;;;;;10.50;10.50;;;;;16.74;34.29;103187.00;5016269;28;45439;-73
2024/01/27 10:37:31;;;;;;;;;8.25;6.00;;;;;16.72;34.37;103173.50;5009685;28;46997;-72
2024/01/27 10:40:03;;;;;;;;;10.50;10.50;;;;;16.83;34.57;103175.84;5013883;28;45339;-72
2024/01/27 10:42:32;;;;;;;;;10.00;10.00;;;;;16.95;34.39;103173.59;5010415;28;45297;-75
2024/01/27 10:45:02;;;;;;;;;11.25;10.75;;;;;17.10;34.15;103169.47;5016515;28;45401;-73
2024/01/27 10:47:29;;;;;;;;;13.25;10.75;;;;;17.16;33.71;103176.53;5016111;28;45563;-73
2024/01/27 10:49:59;;;;;;;;;9.00;9.00;;;;;17.31;33.64;103165.13;5013929;28;45475;-71
2024/01/27 10:52:31;;;;;;;;;10.00;8.75;;;;;17.40;33.50;103165.69;5016469;28;45369;-72
2024/01/27 10:55:03;;;;;;;;;9.00;9.00;;;;;17.50;33.20;103163.53;5016624;28;45480;-72
2024/01/27 10:57:29;;;;;;;;;11.25;9.00;;;;;17.46;32.43;103137.47;4998484;28;47206;-71
2024/01/27 10:59:56;;;;;;;;;11.00;11.00;;;;;17.64;32.62;103152.19;4998945;28;45283;-73
2024/01/27 11:02:22;;;;;;;;;10.75;9.75;;;;;17.71;32.64;103141.06;5016731;28;45515;-72
2024/01/27 11:04:49;;;;;;;;;12.50;10.50;;;;;17.94;32.47;103144.75;5016575;28;45361;-72
2024/01/27 11:07:14;;;;;;;;;12.75;12.75;;;;;18.04;31.72;103138.00;5015978;28;46034;-72
2024/01/27 11:09:43;;;;;;;;;13.00;10.25;;;;;18.18;31.68;103143.78;5016638;28;45470;-74
2024/01/27 11:12:09;;;;;;;;;10.00;10.00;;;;;18.34;31.65;103134.06;4998542;28;45340;-73
2024/01/27 11:14:34;;;;;;;;;10.25;10.25;;;;;18.39;31.28;103139.31;5016333;28;45599;-75
2024/01/27 11:17:00;;;;;;;;;11.25;11.25;;;;;18.52;31.24;103129.72;5015808;28;45261;-70
2024/01/27 11:19:26;;;;;;;;;4.75;4.75;;;;;18.73;31.25;103131.56;5015953;28;45427;-71
2024/01/27 11:22:05;;;;;;;;;13.00;11.50;;;;;18.93;30.94;103124.41;5014748;28;45574;-72
2024/01/27 11:24:31;;;;;;;;;17.25;13.00;;;;;19.07;30.20;103130.09;5015998;28;45463;-72
2024/01/27 11:27:06;;;;;;;;;13.50;11.25;;;;;19.30;30.47;103123.69;5024591;28;46041;-73
2024/01/27 11:29:33;;;;;;;;;13.00;9.00;;;;;19.48;30.31;103129.19;5015949;28;45347;-72
2024/01/27 11:32:03;;;;;;;;;10.50;9.25;;;;;19.90;29.88;103118.16;4997768;28;45534;-73
2024/01/27 11:34:40;;;;;;;;;13.25;11.50;;;;;20.24;29.35;103116.56;5015769;28;45502;-73
2024/01/27 11:37:16;;;;;;;;;15.00;13.00;;;;;20.73;28.62;103121.34;5012774;28;46565;-73
2024/01/27 11:39:41;;;;;;;;;14.25;11.50;;;;;21.15;27.58;103109.16;5013798;28;45500;-72
2024/01/27 11:42:09;;;;;;;;;11.75;11.75;;;;;21.48;27.31;103099.19;5007464;28;45160;-73
2024/01/27 11:44:37;;;;;;;;;13.50;13.50;;;;;21.95;26.61;103092.09;5015232;28;45415;-70
2024/01/27 11:47:04;;;;;;;;;13.25;10.25;;;;;22.27;26.27;103092.03;5015610;28;45328;-75
2024/01/27 11:49:29;;;;;;;;;8.75;8.75;;;;;22.63;25.63;103090.81;5015608;28;45396;-72
2024/01/27 11:51:55;;;;;;;;;7.50;7.50;;;;;22.62;25.12;103089.97;5015708;28;45447;-73
2024/01/27 11:54:20;;;;;;;;;10.75;8.75;;;;;22.40;25.60;103088.56;5015411;28;45356;-71
2024/01/27 11:56:46;;;;;;;;;7.50;6.00;;;;;22.57;25.55;103091.19;5015619;28;45484;-70
2024/01/27 11:59:11;;;;;;;;;9.25;9.25;;;;;22.70;25.22;103081.28;5015627;28;45257;-75
2024/01/27 12:01:37;;;;;;;;;10.25;10.25;;;;;22.63;24.92;103075.28;5015570;28;45330;-74
2024/01/27 12:04:04;;;;;;;;;9.00;9.00;;;;;22.56;25.41;103053.88;5015264;28;45296;-72
2024/01/27 12:06:30;;;;;;;;;8.00;7.75;;;;;22.47;25.62;103052.56;5015399;28;46762;-79
2024/01/27 12:08:57;;;;;;;;;8.00;8.00;;;;;22.51;25.28;103056.03;5016221;28;45289;-78
2024/01/27 12:11:25;;;;;;;;;9.00;8.00;;;;;22.27;25.93;103045.56;5015349;28;45506;-76
2024/01/27 12:13:51;;;;;;;;;9.25;6.00;;;;;22.17;25.70;103068.06;5015031;28;45509;-79
2024/01/27 12:16:17;;;;;;;;;10.00;7.50;;;;;22.06;25.80;103067.78;5015192;28;45471;-78
2024/01/27 12:18:44;;;;;;;;;7.00;7.00;;;;;21.77;25.54;103059.38;5015362;28;45307;-76
2024/01/27 12:21:09;;;;;;;;;9.00;8.25;;;;;21.50;27.01;103056.34;5016218;28;45529;-75
2024/01/27 12:23:35;;;;;;;;;12.00;9.50;;;;;21.48;27.38;103065.56;5015934;28;45558;-76
2024/01/27 12:26:00;;;;;;;;;8.50;8.50;;;;;21.35;27.72;103078.13;5023794;28;47318;-73
2024/01/27 12:28:27;;;;;;;;;8.00;6.75;;;;;21.18;27.00;103079.00;5016210;28;45420;-75
2024/01/27 12:30:53;;;;;;;;;6.25;5.25;;;;;20.92;27.43;103055.84;5015432;28;45388;-75
2024/01/27 12:33:22;;;;;;;;;10.75;10.75;;;;;20.89;28.08;103050.53;4996628;28;45543;-76
2024/01/27 12:35:49;;;;;;;;;6.00;6.00;;;;;20.94;27.62;103039.38;5014440;28;45384;-75
2024/01/27 12:38:14;;;;;;;;;5.75;5.75;;;;;20.90;27.20;103048.69;5007709;28;45372;-75
2024/01/27 12:40:40;;;;;;;;;6.25;5.25;;;;;20.67;27.42;103037.13;5006832;28;45452;-73
2024/01/27 12:43:05;;;;;;;;;4.00;4.00;;;;;20.59;27.20;103027.59;5014088;28;45569;-74
2024/01/27 12:45:31;;;;;;;;;6.00;6.00;;;;;20.44;27.72;103015.63;5016127;28;46227;-75
2024/01/27 12:47:56;;;;;;;;;8.25;5.00;;;;;20.39;27.77;103018.63;5012733;28;45438;-71
2024/01/27 12:50:22;;;;;;;;;10.50;9.25;;;;;20.23;28.12;103006.69;5015128;28;45663;-80
2024/01/27 12:52:48;;;;;;;;;6.50;5.00;;;;;20.09;27.84;102986.53;5015558;28;45346;-75
2024/01/27 12:55:13;;;;;;;;;5.50;5.50;;;;;20.09;28.43;102997.44;5014775;28;45396;-80
2024/01/27 12:57:39;;;;;;;;;7.50;6.50;;;;;19.89;28.11;102969.38;5014685;28;45435;-79
2024/01/27 13:00:09;;;;;;;;;1.50;0.00;;;;;19.95;28.23;102993.56;5015196;28;45355;-80
2024/01/27 13:02:39;;;;;;;;;8.00;5.75;;;;;19.91;28.29;102994.66;5014412;28;45342;-80
2024/01/27 13:05:05;;;;;;;;;6.25;5.25;;;;;19.92;28.78;102974.66;5014907;28;46051;-76
2024/01/27 13:07:30;;;;;;;;;4.75;4.75;;;;;19.88;28.21;102977.63;5014643;28;45332;-75
2024/01/27 13:09:56;;;;;;;;;4.50;4.50;;;;;19.77;28.33;102967.25;5015102;28;45673;-78
2024/01/27 13:12:21;;;;;;;;;5.25;5.00;;;;;19.84;28.67;102974.16;5014306;28;45451;-77
2024/01/27 13:14:47;;;;;;;;;4.00;4.00;;;;;19.89;28.45;102972.09;5013392;28;45949;-72
2024/01/27 13:17:14;;;;;;;;;8.75;5.00;;;;;19.95;28.21;102966.34;5009388;28;45456;-77
2024/01/27 13:19:39;;;;;;;;;5.00;4.25;;;;;20.11;28.46;102955.56;5015537;28;45523;-81
2024/01/27 13:22:06;;;;;;;;;5.75;5.75;;;;;20.28;28.16;102965.59;4996260;28;45972;-69
2024/01/27 13:24:32;;;;;;;;;5.00;5.00;;;;;20.37;28.25;102967.88;5013526;28;45431;-70
2024/01/27 13:26:57;;;;;;;;;7.25;5.50;;;;;20.32;28.06;102950.88;5015521;28;45352;-68
2024/01/27 13:29:23;;;;;;;;;5.50;5.25;;;;;20.31;27.86;102943.66;5014184;28;45792;-70
2024/01/27 13:31:49;;;;;;;;;6.00;6.00;;;;;20.39;27.79;102934.16;5013759;28;45501;-75
2024/01/27 13:34:14;;;;;;;;;3.75;3.75;;;;;20.44;27.53;102952.09;5014260;28;45449;-75
2024/01/27 13:36:40;;;;;;;;;9.50;7.25;;;;;20.57;28.29;102956.84;5013324;28;45373;-75
2024/01/27 13:39:05;;;;;;;;;5.50;5.50;;;;;20.67;28.38;102938.16;5006962;28;46073;-76
2024/01/27 13:41:30;;;;;;;;;3.50;3.50;;;;;20.86;27.67;102943.47;5003808;28;58634;-79
2024/01/27 13:43:56;;;;;;;;;1.00;1.00;;;;;20.92;27.40;102945.88;5014196;28;46626;-78
2024/01/27 13:46:21;;;;;;;;;3.25;3.25;;;;;20.94;27.10;102931.19;5013788;28;48584;-76
2024/01/27 13:48:48;;;;;;;;;7.25;6.00;;;;;20.99;27.96;102934.56;5014410;28;45341;-72
2024/01/27 13:51:14;;;;;;;;;4.00;2.00;;;;;21.10;27.24;102920.28;5015209;28;45552;-75
2024/01/27 13:53:39;;;;;;;;;3.25;3.25;;;;;21.20;27.09;102921.59;4983030;28;46133;-75
2024/01/27 13:56:05;;;;;;;;;2.00;2.00;;;;;21.24;26.64;102920.47;5017717;28;45337;-73
2024/01/27 13:58:30;;;;;;;;;4.00;3.00;;;;;21.15;26.22;102907.31;5017557;28;45352;-75
2024/01/27 14:00:56;;;;;;;;;2.00;2.00;;;;;21.13;26.50;102921.03;5017020;28;45353;-74
2024/01/27 14:03:21;;;;;;;;;2.75;2.75;;;;;21.08;26.50;102909.50;5016136;28;45573;-75
2024/01/27 14:05:47;;;;;;;;;1.75;1.75;;;;;21.13;27.00;102921.03;5013952;28;53557;-75
2024/01/27 14:08:12;;;;;;;;;4.00;4.00;;;;;21.24;26.61;102909.56;5014261;28;45471;-74
2024/01/27 14:10:39;;;;;;;;;3.00;3.00;;;;;21.28;26.82;102907.50;5015075;28;45396;-77
2024/01/27 14:13:08;;;;;;;;;4.50;3.25;;;;;21.33;26.63;102903.56;5014741;28;46427;-75
2024/01/27 14:15:34;;;;;;;;;5.00;3.50;;;;;21.41;26.78;102904.00;5014584;28;45594;-75
2024/01/27 14:18:00;;;;;;;;;6.25;4.50;;;;;21.47;26.90;102892.75;5015114;28;45352;-76
2024/01/27 14:20:29;;;;;;;;;4.00;4.00;;;;;21.42;26.43;102880.34;5014421;28;45634;-75
2024/01/27 14:22:54;;;;;;;;;6.00;6.00;;;;;21.73;26.44;102901.25;4997856;28;46329;-74
2024/01/27 14:25:19;;;;;;;;;4.00;4.00;;;;;22.13;26.05;102895.22;5018960;28;45366;-74
2024/01/27 14:27:45;;;;;;;;;4.00;2.75;;;;;22.63;25.31;102899.41;5023294;28;55386;-75
2024/01/27 14:30:11;;;;;;;;;1.00;1.00;;;;;23.11;24.86;102891.84;5015004;28;45459;-77
2024/01/27 14:32:36;;;;;;;;;3.75;3.75;;;;;23.36;23.80;102878.31;4998424;28;47222;-76
2024/01/27 14:35:05;;;;;;;;;4.75;4.25;;;;;23.63;24.56;102879.25;5015991;28;45507;-75
2024/01/27 14:37:31;;;;;;;;;3.00;3.00;;;;;23.89;23.87;102893.06;4992540;28;46306;-75
2024/01/27 14:39:59;;;;;;;;;4.00;4.00;;;;;24.03;23.61;102868.31;5016090;28;45388;-76
2024/01/27 14:42:24;;;;;;;;;4.50;4.50;;;;;24.21;22.92;102871.69;5016666;28;45439;-74
2024/01/27 14:44:53;;;;;;;;;3.25;3.25;;;;;24.10;22.75;102848.59;5016351;28;50760;-75
2024/01/27 14:47:18;;;;;;;;;4.50;4.00;;;;;24.29;23.22;102872.00;5016448;28;45229;-75
2024/01/27 14:49:45;;;;;;;;;2.00;2.00;;;;;24.30;23.27;102866.44;4998781;28;46415;-77
2024/01/27 14:52:12;;;;;;;;;6.00;4.50;;;;;24.00;22.76;102868.50;5015776;28;46153;-76
2024/01/27 14:54:37;;;;;;;;;3.25;3.25;;;;;23.77;22.63;102848.19;5016311;28;45350;-76
2024/01/27 14:57:03;;;;;;;;;4.75;3.00;;;;;23.87;23.62;102867.63;5016479;28;45525;-75
2024/01/27 14:59:29;;;;;;;;;6.50;3.50;;;;;23.70;23.33;102861.44;5015219;28;45444;-76
2024/01/27 15:01:57;;;;;;;;;5.00;5.00;;;;;23.55;23.53;102862.47;5014078;28;45574;-78
2024/01/27 15:04:25;;;;;;;;;3.50;3.50;;;;;23.44;23.59;102866.84;5013847;28;46891;-77
2024/01/27 15:06:52;;;;;;;;;3.50;3.50;;;;;23.36;23.48;102868.25;5014480;28;45385;-76
2024/01/27 15:09:17;;;;;;;;;4.25;4.00;;;;;23.31;23.68;102864.03;5012547;28;45675;-76
2024/01/27 15:11:44;;;;;;;;;5.50;3.00;;;;;23.27;23.74;102863.38;5015091;28;46450;-75
2024/01/27 15:14:09;;;;;;;;;2.50;2.50;;;;;23.13;22.85;102866.16;4997911;28;45460;-72
2024/01/27 15:16:35;;;;;;;;;4.00;4.00;;;;;23.02;23.54;102855.03;5014062;28;56247;-74
2024/01/27 15:19:01;;;;;;;;;4.75;3.00;;;;;22.96;23.03;102853.56;5015380;28;45569;-74
2024/01/27 15:21:29;;;;;;;;;2.25;2.25;;;;;22.83;23.27;102836.19;4996034;28;46351;-75
2024/01/27 15:23:55;;;;;;;;;4.00;2.75;;;;;22.75;23.43;102832.19;5014589;28;45745;-76
2024/01/27 15:26:21;;;;;;;;;5.25;3.75;;;;;22.66;23.96;102830.88;5020365;28;45666;-76
2024/01/27 15:28:47;;;;;;;;;3.00;3.00;;;;;22.52;23.82;102828.16;5013928;28;45399;-74
2024/01/27 15:31:12;;;;;;;;;3.00;3.00;;;;;22.44;24.11;102835.94;5013887;28;45513;-71
2024/01/27 15:33:38;;;;;;;;;3.25;3.25;;;;;22.34;24.20;102819.25;5013912;28;45579;-73
2024/01/27 15:36:04;;;;;;;;;2.25;2.25;;;;;22.31;23.87;102811.22;5012805;28;45436;-71
2024/01/27 15:38:29;;;;;;;;;3.50;3.50;;;;;22.36;23.94;102836.44;5012582;28;45475;-70
2024/01/27 15:40:55;;;;;;;;;3.75;3.75;;;;;22.21;23.26;102837.34;5005268;28;46315;-74
2024/01/27 15:43:20;;;;;;;;;2.00;2.00;;;;;22.03;23.51;102833.06;5015055;28;45372;-72
2024/01/27 15:45:45;;;;;;;;;3.00;3.00;;;;;21.79;23.33;102841.69;5015331;28;45493;-73
2024/01/27 15:48:12;;;;;;;;;5.75;4.00;;;;;21.64;24.09;102826.25;5015172;28;45344;-72
2024/01/27 15:50:37;;;;;;;;;3.00;2.00;;;;;21.49;24.22;102828.03;5014458;28;45843;-72
2024/01/27 15:53:03;;;;;;;;;4.00;2.25;;;;;21.37;23.95;102827.84;5014635;28;45511;-74
2024/01/27 15:55:29;;;;;;;;;2.50;2.00;;;;;21.21;24.31;102837.91;5013831;28;45562;-76
2024/01/27 15:57:55;;;;;;;;;3.25;3.25;;;;;20.99;24.13;102830.03;5008271;28;45525;-73
2024/01/27 16:00:21;;;;;;;;;19.75;18.00;;;;;20.88;24.14;102832.47;4994699;28;46169;-73
2024/01/27 16:02:47;;;;;;;;;7.25;7.25;;;;;20.76;24.03;102834.03;5014061;28;45361;-76
2024/01/27 16:05:12;;;;;;;;;3.25;3.25;;;;;20.59;24.38;102843.13;5014099;28;45451;-72
2024/01/27 16:07:37;;;;;;;;;9.75;9.00;;;;;20.56;24.74;102859.69;4996413;28;45837;-73
2024/01/27 16:10:03;;;;;;;;;5.00;4.00;;;;;20.43;24.42;102861.28;5014201;28;46214;-78